sensor_id;sensor_type;location;lat;lon;timestamp;P1;durP1;ratioP1;P2;durP2;ratioP2
61356;SDS011;47227;46.752;23.576;2022-10-31T00:01:18;47.20;;;20.00;;
61356;SDS011;47227;46.752;23.576;2022-10-31T00:03:49;48.60;;;21.50;;
61356;SDS011;47227;46.752;23.576;2022-10-31T00:06:17;44.30;;;19.90;;
61356;SDS011;47227;46.752;23.576;2022-10-31T00:08:46;44.50;;;20.00;;
61356;SDS011;47227;46.752;23.576;2022-10-31T00:11:14;46.20;;;20.20;;
61356;SDS011;47227;46.752;23.576;2022-10-31T00:13:42;44.70;;;20.60;;
61356;SDS011;47227;46.752;23.576;2022-10-31T00:16:13;44.10;;;20.60;;
61356;SDS011;47227;46.752;23.576;2022-10-31T00:18:43;45.20;;;21.00;;
61356;SDS011;47227;46.752;23.576;2022-10-31T00:21:11;48.50;;;21.00;;
61356;SDS011;47227;46.752;23.576;2022-10-31T00:23:41;49.10;;;21.50;;
61356;SDS011;47227;46.752;23.576;2022-10-31T00:26:09;53.90;;;22.30;;
61356;SDS011;47227;46.752;23.576;2022-10-31T00:28:37;44.40;;;20.00;;
61356;SDS011;47227;46.752;23.576;2022-10-31T00:31:06;37.90;;;18.20;;
61356;SDS011;47227;46.752;23.576;2022-10-31T00:33:36;44.00;;;18.30;;
61356;SDS011;47227;46.752;23.576;2022-10-31T00:36:06;36.00;;;17.00;;
61356;SDS011;47227;46.752;23.576;2022-10-31T00:38:35;42.30;;;18.60;;
61356;SDS011;47227;46.752;23.576;2022-10-31T00:41:03;43.80;;;18.50;;
61356;SDS011;47227;46.752;23.576;2022-10-31T00:43:31;46.60;;;18.80;;
61356;SDS011;47227;46.752;23.576;2022-10-31T00:45:59;35.20;;;15.60;;
61356;SDS011;47227;46.752;23.576;2022-10-31T00:48:29;37.60;;;16.50;;
61356;SDS011;47227;46.752;23.576;2022-10-31T00:50:57;41.00;;;17.30;;
61356;SDS011;47227;46.752;23.576;2022-10-31T00:53:24;43.00;;;19.20;;
61356;SDS011;47227;46.752;23.576;2022-10-31T00:55:52;42.70;;;19.40;;
61356;SDS011;47227;46.752;23.576;2022-10-31T00:58:20;48.70;;;19.00;;
61356;SDS011;47227;46.752;23.576;2022-10-31T01:00:49;42.90;;;20.10;;
61356;SDS011;47227;46.752;23.576;2022-10-31T01:03:23;48.90;;;19.90;;
61356;SDS011;47227;46.752;23.576;2022-10-31T01:06:01;44.70;;;20.70;;
61356;SDS011;47227;46.752;23.576;2022-10-31T01:08:33;40.20;;;19.60;;
61356;SDS011;47227;46.752;23.576;2022-10-31T01:11:10;44.70;;;18.80;;
61356;SDS011;47227;46.752;23.576;2022-10-31T01:13:41;48.90;;;20.30;;
61356;SDS011;47227;46.752;23.576;2022-10-31T01:16:11;44.70;;;20.20;;
61356;SDS011;47227;46.752;23.576;2022-10-31T01:18:42;48.30;;;20.00;;
61356;SDS011;47227;46.752;23.576;2022-10-31T01:21:12;43.80;;;20.70;;
61356;SDS011;47227;46.752;23.576;2022-10-31T01:23:43;49.40;;;19.90;;
61356;SDS011;47227;46.752;23.576;2022-10-31T01:26:15;43.90;;;19.20;;
61356;SDS011;47227;46.752;23.576;2022-10-31T01:28:46;46.10;;;19.80;;
61356;SDS011;47227;46.752;23.576;2022-10-31T01:31:25;45.10;;;18.50;;
61356;SDS011;47227;46.752;23.576;2022-10-31T01:33:56;39.70;;;18.70;;
61356;SDS011;47227;46.752;23.576;2022-10-31T01:36:25;39.50;;;16.80;;
61356;SDS011;47227;46.752;23.576;2022-10-31T01:38:56;36.60;;;16.20;;
61356;SDS011;47227;46.752;23.576;2022-10-31T01:41:27;37.80;;;15.60;;
61356;SDS011;47227;46.752;23.576;2022-10-31T01:43:59;34.50;;;15.30;;
61356;SDS011;47227;46.752;23.576;2022-10-31T01:46:33;38.30;;;16.40;;
61356;SDS011;47227;46.752;23.576;2022-10-31T01:49:05;38.80;;;16.20;;
61356;SDS011;47227;46.752;23.576;2022-10-31T01:51:39;33.70;;;14.70;;
61356;SDS011;47227;46.752;23.576;2022-10-31T01:54:11;38.50;;;16.00;;
61356;SDS011;47227;46.752;23.576;2022-10-31T01:56:42;41.70;;;17.00;;
61356;SDS011;47227;46.752;23.576;2022-10-31T01:59:16;40.90;;;17.50;;
61356;SDS011;47227;46.752;23.576;2022-10-31T02:01:48;41.10;;;18.30;;
61356;SDS011;47227;46.752;23.576;2022-10-31T02:04:19;43.20;;;18.10;;
61356;SDS011;47227;46.752;23.576;2022-10-31T02:06:51;40.50;;;18.50;;
61356;SDS011;47227;46.752;23.576;2022-10-31T02:09:23;50.50;;;19.80;;
61356;SDS011;47227;46.752;23.576;2022-10-31T02:11:54;46.80;;;18.70;;
61356;SDS011;47227;46.752;23.576;2022-10-31T02:14:25;43.80;;;18.80;;
61356;SDS011;47227;46.752;23.576;2022-10-31T02:16:55;52.70;;;18.60;;
61356;SDS011;47227;46.752;23.576;2022-10-31T02:22:24;52.30;;;18.30;;
61356;SDS011;47227;46.752;23.576;2022-10-31T02:28:05;50.70;;;20.10;;
61356;SDS011;47227;46.752;23.576;2022-10-31T02:30:53;44.50;;;17.00;;
61356;SDS011;47227;46.752;23.576;2022-10-31T02:33:34;41.30;;;17.20;;
61356;SDS011;47227;46.752;23.576;2022-10-31T02:36:13;65.10;;;17.10;;
61356;SDS011;47227;46.752;23.576;2022-10-31T02:38:51;46.40;;;16.80;;
61356;SDS011;47227;46.752;23.576;2022-10-31T02:41:44;44.30;;;17.60;;
61356;SDS011;47227;46.752;23.576;2022-10-31T02:44:22;41.50;;;16.20;;
61356;SDS011;47227;46.752;23.576;2022-10-31T02:47:00;37.50;;;15.60;;
61356;SDS011;47227;46.752;23.576;2022-10-31T02:49:35;37.40;;;15.30;;
61356;SDS011;47227;46.752;23.576;2022-10-31T02:52:21;39.70;;;15.70;;
61356;SDS011;47227;46.752;23.576;2022-10-31T02:54:52;49.40;;;16.40;;
61356;SDS011;47227;46.752;23.576;2022-10-31T02:57:21;46.50;;;16.00;;
61356;SDS011;47227;46.752;23.576;2022-10-31T02:59:54;40.70;;;15.40;;
61356;SDS011;47227;46.752;23.576;2022-10-31T03:02:34;35.90;;;14.30;;
61356;SDS011;47227;46.752;23.576;2022-10-31T03:05:21;52.30;;;16.40;;
61356;SDS011;47227;46.752;23.576;2022-10-31T03:08:06;41.80;;;18.30;;
61356;SDS011;47227;46.752;23.576;2022-10-31T03:10:52;40.60;;;17.40;;
61356;SDS011;47227;46.752;23.576;2022-10-31T03:13:34;46.40;;;19.20;;
61356;SDS011;47227;46.752;23.576;2022-10-31T03:16:14;48.70;;;18.90;;
61356;SDS011;47227;46.752;23.576;2022-10-31T03:18:50;45.20;;;18.80;;
61356;SDS011;47227;46.752;23.576;2022-10-31T03:24:13;66.50;;;17.80;;
61356;SDS011;47227;46.752;23.576;2022-10-31T03:26:44;52.00;;;16.60;;
61356;SDS011;47227;46.752;23.576;2022-10-31T03:29:16;60.50;;;18.80;;
61356;SDS011;47227;46.752;23.576;2022-10-31T03:31:51;49.70;;;18.80;;
61356;SDS011;47227;46.752;23.576;2022-10-31T03:34:24;78.00;;;19.40;;
61356;SDS011;47227;46.752;23.576;2022-10-31T03:36:54;83.10;;;19.20;;
61356;SDS011;47227;46.752;23.576;2022-10-31T03:39:25;46.80;;;18.60;;
61356;SDS011;47227;46.752;23.576;2022-10-31T03:41:57;49.30;;;17.70;;
61356;SDS011;47227;46.752;23.576;2022-10-31T03:44:33;46.00;;;18.70;;
61356;SDS011;47227;46.752;23.576;2022-10-31T03:47:03;46.40;;;18.90;;
61356;SDS011;47227;46.752;23.576;2022-10-31T03:49:32;39.90;;;16.60;;
61356;SDS011;47227;46.752;23.576;2022-10-31T03:52:07;48.60;;;16.40;;
61356;SDS011;47227;46.752;23.576;2022-10-31T03:54:48;43.90;;;16.80;;
61356;SDS011;47227;46.752;23.576;2022-10-31T03:57:27;41.00;;;15.90;;
61356;SDS011;47227;46.752;23.576;2022-10-31T04:00:06;42.70;;;16.70;;
61356;SDS011;47227;46.752;23.576;2022-10-31T04:03:00;35.20;;;15.30;;
61356;SDS011;47227;46.752;23.576;2022-10-31T04:05:32;39.10;;;16.90;;
61356;SDS011;47227;46.752;23.576;2022-10-31T04:08:03;35.50;;;15.20;;
61356;SDS011;47227;46.752;23.576;2022-10-31T04:10:37;38.40;;;16.00;;
61356;SDS011;47227;46.752;23.576;2022-10-31T04:13:07;40.40;;;14.90;;
61356;SDS011;47227;46.752;23.576;2022-10-31T04:15:45;34.30;;;15.30;;
61356;SDS011;47227;46.752;23.576;2022-10-31T04:18:20;39.50;;;16.70;;
61356;SDS011;47227;46.752;23.576;2022-10-31T04:20:58;39.10;;;18.30;;
61356;SDS011;47227;46.752;23.576;2022-10-31T04:23:30;62.80;;;18.60;;
61356;SDS011;47227;46.752;23.576;2022-10-31T04:26:00;45.60;;;18.60;;
61356;SDS011;47227;46.752;23.576;2022-10-31T04:28:28;44.80;;;19.60;;
61356;SDS011;47227;46.752;23.576;2022-10-31T04:30:57;40.80;;;18.00;;
61356;SDS011;47227;46.752;23.576;2022-10-31T04:33:25;48.40;;;18.10;;
61356;SDS011;47227;46.752;23.576;2022-10-31T04:35:52;42.50;;;19.50;;
61356;SDS011;47227;46.752;23.576;2022-10-31T04:38:20;49.90;;;18.60;;
61356;SDS011;47227;46.752;23.576;2022-10-31T04:40:49;49.90;;;18.30;;
61356;SDS011;47227;46.752;23.576;2022-10-31T04:43:34;44.90;;;18.80;;
61356;SDS011;47227;46.752;23.576;2022-10-31T04:46:03;49.20;;;18.70;;
61356;SDS011;47227;46.752;23.576;2022-10-31T04:48:31;46.20;;;19.00;;
61356;SDS011;47227;46.752;23.576;2022-10-31T04:51:00;68.60;;;29.60;;
61356;SDS011;47227;46.752;23.576;2022-10-31T04:53:29;59.80;;;21.90;;
61356;SDS011;47227;46.752;23.576;2022-10-31T04:56:17;51.80;;;18.40;;
61356;SDS011;47227;46.752;23.576;2022-10-31T04:58:47;44.60;;;17.60;;
61356;SDS011;47227;46.752;23.576;2022-10-31T05:01:15;48.50;;;18.50;;
61356;SDS011;47227;46.752;23.576;2022-10-31T05:03:45;38.10;;;16.30;;
61356;SDS011;47227;46.752;23.576;2022-10-31T05:06:13;46.30;;;16.90;;
61356;SDS011;47227;46.752;23.576;2022-10-31T05:08:41;35.10;;;15.80;;
61356;SDS011;47227;46.752;23.576;2022-10-31T05:11:10;41.40;;;17.80;;
61356;SDS011;47227;46.752;23.576;2022-10-31T05:13:39;36.20;;;16.70;;
61356;SDS011;47227;46.752;23.576;2022-10-31T05:16:27;47.00;;;17.20;;
61356;SDS011;47227;46.752;23.576;2022-10-31T05:19:07;37.90;;;15.60;;
61356;SDS011;47227;46.752;23.576;2022-10-31T05:21:54;39.40;;;16.40;;
61356;SDS011;47227;46.752;23.576;2022-10-31T05:24:23;34.20;;;15.70;;
61356;SDS011;47227;46.752;23.576;2022-10-31T05:26:52;43.70;;;16.50;;
61356;SDS011;47227;46.752;23.576;2022-10-31T05:29:20;57.70;;;17.50;;
61356;SDS011;47227;46.752;23.576;2022-10-31T05:31:48;36.00;;;16.40;;
61356;SDS011;47227;46.752;23.576;2022-10-31T05:34:36;45.10;;;17.00;;
61356;SDS011;47227;46.752;23.576;2022-10-31T05:37:18;39.00;;;16.60;;
61356;SDS011;47227;46.752;23.576;2022-10-31T05:39:46;43.80;;;17.60;;
61356;SDS011;47227;46.752;23.576;2022-10-31T05:42:15;40.80;;;17.30;;
61356;SDS011;47227;46.752;23.576;2022-10-31T05:44:43;33.90;;;15.70;;
61356;SDS011;47227;46.752;23.576;2022-10-31T05:47:28;41.50;;;16.50;;
61356;SDS011;47227;46.752;23.576;2022-10-31T05:50:09;37.60;;;16.50;;
61356;SDS011;47227;46.752;23.576;2022-10-31T05:52:54;42.40;;;17.80;;
61356;SDS011;47227;46.752;23.576;2022-10-31T05:55:29;42.20;;;16.40;;
61356;SDS011;47227;46.752;23.576;2022-10-31T05:58:04;38.00;;;17.00;;
61356;SDS011;47227;46.752;23.576;2022-10-31T06:00:32;40.70;;;16.00;;
61356;SDS011;47227;46.752;23.576;2022-10-31T06:03:07;36.70;;;15.60;;
61356;SDS011;47227;46.752;23.576;2022-10-31T06:05:49;31.60;;;14.60;;
61356;SDS011;47227;46.752;23.576;2022-10-31T06:08:26;34.40;;;13.90;;
61356;SDS011;47227;46.752;23.576;2022-10-31T06:10:55;26.80;;;12.00;;
61356;SDS011;47227;46.752;23.576;2022-10-31T06:13:43;23.80;;;11.30;;
61356;SDS011;47227;46.752;23.576;2022-10-31T06:16:17;21.50;;;10.50;;
61356;SDS011;47227;46.752;23.576;2022-10-31T06:18:46;22.10;;;12.30;;
61356;SDS011;47227;46.752;23.576;2022-10-31T06:21:15;25.20;;;13.30;;
61356;SDS011;47227;46.752;23.576;2022-10-31T06:23:46;28.90;;;12.80;;
61356;SDS011;47227;46.752;23.576;2022-10-31T06:26:25;31.50;;;15.90;;
61356;SDS011;47227;46.752;23.576;2022-10-31T06:28:59;36.50;;;14.70;;
61356;SDS011;47227;46.752;23.576;2022-10-31T06:31:50;28.90;;;14.50;;
61356;SDS011;47227;46.752;23.576;2022-10-31T06:34:19;38.00;;;14.80;;
61356;SDS011;47227;46.752;23.576;2022-10-31T06:36:47;24.50;;;13.90;;
61356;SDS011;47227;46.752;23.576;2022-10-31T06:39:16;29.20;;;13.60;;
61356;SDS011;47227;46.752;23.576;2022-10-31T06:41:46;26.00;;;13.40;;
61356;SDS011;47227;46.752;23.576;2022-10-31T06:44:16;27.10;;;13.20;;
61356;SDS011;47227;46.752;23.576;2022-10-31T06:47:04;26.30;;;13.50;;
61356;SDS011;47227;46.752;23.576;2022-10-31T06:49:55;21.60;;;11.30;;
61356;SDS011;47227;46.752;23.576;2022-10-31T06:52:26;22.90;;;11.10;;
61356;SDS011;47227;46.752;23.576;2022-10-31T06:55:02;23.70;;;11.70;;
61356;SDS011;47227;46.752;23.576;2022-10-31T06:57:51;23.10;;;10.90;;
61356;SDS011;47227;46.752;23.576;2022-10-31T07:01:02;27.10;;;10.60;;
61356;SDS011;47227;46.752;23.576;2022-10-31T07:03:35;22.20;;;11.00;;
61356;SDS011;47227;46.752;23.576;2022-10-31T07:19:59;19.60;;;10.20;;
61356;SDS011;47227;46.752;23.576;2022-10-31T07:22:34;19.80;;;11.40;;
61356;SDS011;47227;46.752;23.576;2022-10-31T07:25:10;16.70;;;10.00;;
61356;SDS011;47227;46.752;23.576;2022-10-31T07:27:56;20.30;;;11.10;;
61356;SDS011;47227;46.752;23.576;2022-10-31T07:30:29;20.10;;;10.90;;
61356;SDS011;47227;46.752;23.576;2022-10-31T07:32:59;20.00;;;11.40;;
61356;SDS011;47227;46.752;23.576;2022-10-31T07:35:50;21.90;;;12.50;;
61356;SDS011;47227;46.752;23.576;2022-10-31T07:38:39;22.70;;;11.50;;
61356;SDS011;47227;46.752;23.576;2022-10-31T07:42:06;19.90;;;11.00;;
61356;SDS011;47227;46.752;23.576;2022-10-31T07:44:57;24.60;;;12.50;;
61356;SDS011;47227;46.752;23.576;2022-10-31T07:48:35;22.30;;;11.90;;
61356;SDS011;47227;46.752;23.576;2022-10-31T07:52:22;20.20;;;11.60;;
61356;SDS011;47227;46.752;23.576;2022-10-31T07:55:48;19.20;;;10.10;;
61356;SDS011;47227;46.752;23.576;2022-10-31T07:59:39;19.00;;;10.40;;
61356;SDS011;47227;46.752;23.576;2022-10-31T08:17:57;15.40;;;9.30;;
61356;SDS011;47227;46.752;23.576;2022-10-31T08:21:35;17.00;;;10.00;;
61356;SDS011;47227;46.752;23.576;2022-10-31T08:25:24;18.20;;;10.30;;
61356;SDS011;47227;46.752;23.576;2022-10-31T08:28:59;19.50;;;10.70;;
61356;SDS011;47227;46.752;23.576;2022-10-31T08:32:20;17.40;;;11.30;;
61356;SDS011;47227;46.752;23.576;2022-10-31T08:37:06;20.80;;;11.30;;
61356;SDS011;47227;46.752;23.576;2022-10-31T08:40:17;20.20;;;11.40;;
61356;SDS011;47227;46.752;23.576;2022-10-31T08:43:10;21.10;;;10.40;;
61356;SDS011;47227;46.752;23.576;2022-10-31T08:46:50;21.70;;;11.50;;
61356;SDS011;47227;46.752;23.576;2022-10-31T08:49:31;22.50;;;12.30;;
61356;SDS011;47227;46.752;23.576;2022-10-31T08:52:33;35.50;;;13.30;;
61356;SDS011;47227;46.752;23.576;2022-10-31T08:56:37;35.10;;;15.10;;
61356;SDS011;47227;46.752;23.576;2022-10-31T08:59:22;31.50;;;15.90;;
61356;SDS011;47227;46.752;23.576;2022-10-31T09:02:24;35.10;;;15.30;;
61356;SDS011;47227;46.752;23.576;2022-10-31T09:05:12;25.80;;;13.80;;
61356;SDS011;47227;46.752;23.576;2022-10-31T09:08:31;28.40;;;15.50;;
61356;SDS011;47227;46.752;23.576;2022-10-31T09:11:13;35.90;;;17.10;;
61356;SDS011;47227;46.752;23.576;2022-10-31T09:14:54;31.10;;;15.80;;
61356;SDS011;47227;46.752;23.576;2022-10-31T09:18:19;33.60;;;16.40;;
61356;SDS011;47227;46.752;23.576;2022-10-31T09:21:43;33.60;;;16.50;;
61356;SDS011;47227;46.752;23.576;2022-10-31T09:25:05;38.10;;;17.50;;
61356;SDS011;47227;46.752;23.576;2022-10-31T09:31:14;30.10;;;14.40;;
61356;SDS011;47227;46.752;23.576;2022-10-31T09:34:07;28.10;;;14.00;;
61356;SDS011;47227;46.752;23.576;2022-10-31T09:37:37;29.50;;;12.60;;
61356;SDS011;47227;46.752;23.576;2022-10-31T09:40:39;26.20;;;12.70;;
61356;SDS011;47227;46.752;23.576;2022-10-31T09:44:14;32.00;;;16.00;;
61356;SDS011;47227;46.752;23.576;2022-10-31T09:58:25;47.10;;;20.90;;
61356;SDS011;47227;46.752;23.576;2022-10-31T10:01:51;45.60;;;21.40;;
61356;SDS011;47227;46.752;23.576;2022-10-31T10:04:34;47.80;;;20.60;;
61356;SDS011;47227;46.752;23.576;2022-10-31T10:16:58;46.70;;;20.20;;
61356;SDS011;47227;46.752;23.576;2022-10-31T10:21:01;56.40;;;23.40;;
61356;SDS011;47227;46.752;23.576;2022-10-31T10:24:53;58.20;;;26.20;;
61356;SDS011;47227;46.752;23.576;2022-10-31T10:30:33;57.70;;;24.60;;
61356;SDS011;47227;46.752;23.576;2022-10-31T10:33:35;53.60;;;24.30;;
61356;SDS011;47227;46.752;23.576;2022-10-31T10:36:42;51.90;;;23.00;;
61356;SDS011;47227;46.752;23.576;2022-10-31T10:40:07;49.00;;;22.10;;
61356;SDS011;47227;46.752;23.576;2022-10-31T10:43:40;60.00;;;26.10;;
61356;SDS011;47227;46.752;23.576;2022-10-31T10:46:48;55.50;;;23.90;;
61356;SDS011;47227;46.752;23.576;2022-10-31T10:49:48;50.00;;;22.40;;
61356;SDS011;47227;46.752;23.576;2022-10-31T10:52:30;51.40;;;21.60;;
61356;SDS011;47227;46.752;23.576;2022-10-31T10:55:56;49.50;;;20.70;;
61356;SDS011;47227;46.752;23.576;2022-10-31T10:59:25;44.40;;;19.50;;
61356;SDS011;47227;46.752;23.576;2022-10-31T11:02:36;45.00;;;19.00;;
61356;SDS011;47227;46.752;23.576;2022-10-31T11:10:26;35.40;;;18.00;;
61356;SDS011;47227;46.752;23.576;2022-10-31T11:16:11;46.20;;;21.30;;
61356;SDS011;47227;46.752;23.576;2022-10-31T11:24:43;51.90;;;22.70;;
61356;SDS011;47227;46.752;23.576;2022-10-31T11:28:59;46.90;;;21.30;;
61356;SDS011;47227;46.752;23.576;2022-10-31T11:31:45;48.40;;;20.90;;
61356;SDS011;47227;46.752;23.576;2022-10-31T11:34:35;45.30;;;21.20;;
61356;SDS011;47227;46.752;23.576;2022-10-31T11:42:40;50.40;;;22.10;;
61356;SDS011;47227;46.752;23.576;2022-10-31T11:46:11;40.80;;;21.00;;
61356;SDS011;47227;46.752;23.576;2022-10-31T11:48:59;47.20;;;21.50;;
61356;SDS011;47227;46.752;23.576;2022-10-31T11:51:33;47.40;;;22.30;;
61356;SDS011;47227;46.752;23.576;2022-10-31T12:25:37;40.70;;;19.20;;
61356;SDS011;47227;46.752;23.576;2022-10-31T12:35:22;49.20;;;21.20;;
61356;SDS011;47227;46.752;23.576;2022-10-31T12:48:55;52.20;;;23.20;;
61356;SDS011;47227;46.752;23.576;2022-10-31T12:52:29;50.40;;;22.60;;
61356;SDS011;47227;46.752;23.576;2022-10-31T13:20:59;42.70;;;20.60;;
61356;SDS011;47227;46.752;23.576;2022-10-31T13:45:46;46.10;;;22.80;;
61356;SDS011;47227;46.752;23.576;2022-10-31T13:53:20;42.10;;;22.10;;
61356;SDS011;47227;46.752;23.576;2022-10-31T13:57:19;40.70;;;21.60;;
61356;SDS011;47227;46.752;23.576;2022-10-31T14:00:22;46.50;;;20.40;;
61356;SDS011;47227;46.752;23.576;2022-10-31T14:02:54;44.10;;;21.50;;
61356;SDS011;47227;46.752;23.576;2022-10-31T14:05:25;43.90;;;21.60;;
61356;SDS011;47227;46.752;23.576;2022-10-31T14:11:25;41.90;;;19.80;;
61356;SDS011;47227;46.752;23.576;2022-10-31T14:14:23;40.90;;;19.60;;
61356;SDS011;47227;46.752;23.576;2022-10-31T14:17:17;45.40;;;21.90;;
61356;SDS011;47227;46.752;23.576;2022-10-31T14:20:21;42.70;;;19.90;;
61356;SDS011;47227;46.752;23.576;2022-10-31T14:30:37;45.00;;;20.70;;
61356;SDS011;47227;46.752;23.576;2022-10-31T14:34:18;45.20;;;21.80;;
61356;SDS011;47227;46.752;23.576;2022-10-31T14:44:23;46.60;;;21.50;;
61356;SDS011;47227;46.752;23.576;2022-10-31T15:08:29;64.50;;;25.50;;
61356;SDS011;47227;46.752;23.576;2022-10-31T15:11:21;57.90;;;24.50;;
61356;SDS011;47227;46.752;23.576;2022-10-31T15:14:16;56.60;;;25.00;;
61356;SDS011;47227;46.752;23.576;2022-10-31T15:17:31;61.90;;;26.30;;
61356;SDS011;47227;46.752;23.576;2022-10-31T15:20:12;74.70;;;27.10;;
61356;SDS011;47227;46.752;23.576;2022-10-31T15:23:16;67.20;;;27.40;;
61356;SDS011;47227;46.752;23.576;2022-10-31T15:26:01;62.50;;;27.80;;
61356;SDS011;47227;46.752;23.576;2022-10-31T15:28:39;70.10;;;28.70;;
61356;SDS011;47227;46.752;23.576;2022-10-31T15:35:20;67.20;;;26.20;;
61356;SDS011;47227;46.752;23.576;2022-10-31T15:38:32;64.70;;;25.70;;
61356;SDS011;47227;46.752;23.576;2022-10-31T15:44:11;56.70;;;24.00;;
61356;SDS011;47227;46.752;23.576;2022-10-31T15:46:43;66.20;;;25.00;;
61356;SDS011;47227;46.752;23.576;2022-10-31T15:49:35;62.20;;;23.60;;
61356;SDS011;47227;46.752;23.576;2022-10-31T15:52:34;64.10;;;23.90;;
61356;SDS011;47227;46.752;23.576;2022-10-31T15:55:58;59.60;;;23.30;;
61356;SDS011;47227;46.752;23.576;2022-10-31T16:00:01;57.20;;;23.10;;
61356;SDS011;47227;46.752;23.576;2022-10-31T16:07:01;58.40;;;24.20;;
61356;SDS011;47227;46.752;23.576;2022-10-31T16:10:05;61.00;;;25.50;;
61356;SDS011;47227;46.752;23.576;2022-10-31T16:14:21;60.40;;;25.10;;
61356;SDS011;47227;46.752;23.576;2022-10-31T16:17:15;57.70;;;24.20;;
61356;SDS011;47227;46.752;23.576;2022-10-31T16:20:04;62.00;;;25.80;;
61356;SDS011;47227;46.752;23.576;2022-10-31T16:32:31;66.70;;;25.90;;
61356;SDS011;47227;46.752;23.576;2022-10-31T16:35:36;61.00;;;25.00;;
61356;SDS011;47227;46.752;23.576;2022-10-31T16:40:44;67.60;;;27.00;;
61356;SDS011;47227;46.752;23.576;2022-10-31T16:43:15;69.20;;;26.60;;
61356;SDS011;47227;46.752;23.576;2022-10-31T16:45:44;52.10;;;21.80;;
61356;SDS011;47227;46.752;23.576;2022-10-31T16:48:12;62.10;;;24.20;;
61356;SDS011;47227;46.752;23.576;2022-10-31T16:50:41;68.40;;;25.50;;
61356;SDS011;47227;46.752;23.576;2022-10-31T16:53:09;58.50;;;24.00;;
61356;SDS011;47227;46.752;23.576;2022-10-31T16:55:41;60.80;;;26.30;;
61356;SDS011;47227;46.752;23.576;2022-10-31T16:58:13;61.30;;;25.10;;
61356;SDS011;47227;46.752;23.576;2022-10-31T17:00:43;58.10;;;24.90;;
61356;SDS011;47227;46.752;23.576;2022-10-31T17:03:09;61.60;;;24.70;;
61356;SDS011;47227;46.752;23.576;2022-10-31T17:05:37;56.00;;;24.20;;
61356;SDS011;47227;46.752;23.576;2022-10-31T17:08:09;53.30;;;23.30;;
61356;SDS011;47227;46.752;23.576;2022-10-31T17:11:02;57.40;;;24.10;;
61356;SDS011;47227;46.752;23.576;2022-10-31T17:13:40;59.70;;;25.60;;
61356;SDS011;47227;46.752;23.576;2022-10-31T17:16:09;55.70;;;23.00;;
61356;SDS011;47227;46.752;23.576;2022-10-31T17:19:16;60.00;;;26.30;;
61356;SDS011;47227;46.752;23.576;2022-10-31T17:22:30;61.70;;;24.90;;
61356;SDS011;47227;46.752;23.576;2022-10-31T17:25:00;55.90;;;23.50;;
61356;SDS011;47227;46.752;23.576;2022-10-31T17:27:30;41.70;;;19.00;;
61356;SDS011;47227;46.752;23.576;2022-10-31T17:29:57;49.50;;;20.90;;
61356;SDS011;47227;46.752;23.576;2022-10-31T17:32:23;55.00;;;24.80;;
61356;SDS011;47227;46.752;23.576;2022-10-31T17:34:50;49.60;;;23.40;;
61356;SDS011;47227;46.752;23.576;2022-10-31T17:37:16;49.10;;;23.30;;
61356;SDS011;47227;46.752;23.576;2022-10-31T17:39:43;54.40;;;24.60;;
61356;SDS011;47227;46.752;23.576;2022-10-31T17:42:09;54.10;;;23.80;;
61356;SDS011;47227;46.752;23.576;2022-10-31T17:44:35;51.60;;;24.30;;
61356;SDS011;47227;46.752;23.576;2022-10-31T17:47:02;60.40;;;24.80;;
61356;SDS011;47227;46.752;23.576;2022-10-31T17:49:28;60.00;;;25.70;;
61356;SDS011;47227;46.752;23.576;2022-10-31T17:51:55;52.50;;;24.20;;
61356;SDS011;47227;46.752;23.576;2022-10-31T17:54:22;57.60;;;25.70;;
61356;SDS011;47227;46.752;23.576;2022-10-31T17:56:48;53.60;;;24.70;;
61356;SDS011;47227;46.752;23.576;2022-10-31T17:59:15;53.20;;;25.00;;
61356;SDS011;47227;46.752;23.576;2022-10-31T18:01:41;55.40;;;25.30;;
61356;SDS011;47227;46.752;23.576;2022-10-31T18:04:10;55.70;;;25.90;;
61356;SDS011;47227;46.752;23.576;2022-10-31T18:06:37;54.10;;;26.30;;
61356;SDS011;47227;46.752;23.576;2022-10-31T18:09:04;57.00;;;24.10;;
61356;SDS011;47227;46.752;23.576;2022-10-31T18:11:31;61.90;;;24.40;;
61356;SDS011;47227;46.752;23.576;2022-10-31T18:13:57;55.50;;;24.20;;
61356;SDS011;47227;46.752;23.576;2022-10-31T18:16:25;59.00;;;23.40;;
61356;SDS011;47227;46.752;23.576;2022-10-31T18:18:52;53.60;;;23.00;;
61356;SDS011;47227;46.752;23.576;2022-10-31T18:21:21;52.50;;;22.60;;
61356;SDS011;47227;46.752;23.576;2022-10-31T18:23:48;49.80;;;23.40;;
61356;SDS011;47227;46.752;23.576;2022-10-31T18:26:19;54.40;;;22.10;;
61356;SDS011;47227;46.752;23.576;2022-10-31T18:28:46;50.10;;;22.30;;
61356;SDS011;47227;46.752;23.576;2022-10-31T18:31:13;56.00;;;23.50;;
61356;SDS011;47227;46.752;23.576;2022-10-31T18:33:39;47.60;;;22.30;;
61356;SDS011;47227;46.752;23.576;2022-10-31T18:36:08;50.10;;;21.80;;
61356;SDS011;47227;46.752;23.576;2022-10-31T18:38:36;54.30;;;22.80;;
61356;SDS011;47227;46.752;23.576;2022-10-31T18:41:05;55.40;;;23.00;;
61356;SDS011;47227;46.752;23.576;2022-10-31T18:43:32;48.90;;;22.30;;
61356;SDS011;47227;46.752;23.576;2022-10-31T18:46:00;61.70;;;23.60;;
61356;SDS011;47227;46.752;23.576;2022-10-31T18:48:28;55.90;;;24.90;;
61356;SDS011;47227;46.752;23.576;2022-10-31T18:50:57;62.30;;;23.80;;
61356;SDS011;47227;46.752;23.576;2022-10-31T18:53:31;53.80;;;24.10;;
61356;SDS011;47227;46.752;23.576;2022-10-31T18:55:57;63.30;;;25.30;;
61356;SDS011;47227;46.752;23.576;2022-10-31T18:58:26;61.10;;;24.50;;
61356;SDS011;47227;46.752;23.576;2022-10-31T19:00:54;56.50;;;24.70;;
61356;SDS011;47227;46.752;23.576;2022-10-31T19:03:21;57.60;;;24.30;;
61356;SDS011;47227;46.752;23.576;2022-10-31T19:05:53;53.70;;;24.70;;
61356;SDS011;47227;46.752;23.576;2022-10-31T19:08:21;55.20;;;24.40;;
61356;SDS011;47227;46.752;23.576;2022-10-31T19:10:47;49.70;;;21.00;;
61356;SDS011;47227;46.752;23.576;2022-10-31T19:13:14;46.80;;;22.60;;
61356;SDS011;47227;46.752;23.576;2022-10-31T19:15:41;52.50;;;22.70;;
61356;SDS011;47227;46.752;23.576;2022-10-31T19:18:07;49.20;;;22.30;;
61356;SDS011;47227;46.752;23.576;2022-10-31T19:20:36;54.50;;;24.50;;
61356;SDS011;47227;46.752;23.576;2022-10-31T19:23:03;53.30;;;24.90;;
61356;SDS011;47227;46.752;23.576;2022-10-31T19:25:30;61.60;;;25.80;;
61356;SDS011;47227;46.752;23.576;2022-10-31T19:27:57;61.20;;;26.50;;
61356;SDS011;47227;46.752;23.576;2022-10-31T19:30:30;54.00;;;25.50;;
61356;SDS011;47227;46.752;23.576;2022-10-31T19:54:23;38.90;;;18.70;;
61356;SDS011;47227;46.752;23.576;2022-10-31T19:56:50;35.80;;;18.30;;
61356;SDS011;47227;46.752;23.576;2022-10-31T19:59:17;33.40;;;16.60;;
61356;SDS011;47227;46.752;23.576;2022-10-31T20:01:43;30.10;;;16.40;;
61356;SDS011;47227;46.752;23.576;2022-10-31T20:04:10;31.20;;;17.60;;
61356;SDS011;47227;46.752;23.576;2022-10-31T20:06:38;30.20;;;16.90;;
61356;SDS011;47227;46.752;23.576;2022-10-31T20:09:08;32.80;;;17.60;;